sensor_id;sensor_type;location;lat;lon;timestamp;P1;durP1;ratioP1;P2;durP2;ratioP2
59147;SDS011;44930;52.878;6.168;2023-04-15T00:00:14;7.72;;;2.70;;
59147;SDS011;44930;52.878;6.168;2023-04-15T00:02:40;7.78;;;2.92;;
59147;SDS011;44930;52.878;6.168;2023-04-15T00:05:06;7.70;;;2.60;;
59147;SDS011;44930;52.878;6.168;2023-04-15T00:07:32;6.10;;;2.50;;
59147;SDS011;44930;52.878;6.168;2023-04-15T00:09:58;9.02;;;3.03;;
59147;SDS011;44930;52.878;6.168;2023-04-15T00:12:24;4.95;;;2.50;;
59147;SDS011;44930;52.878;6.168;2023-04-15T00:14:51;8.77;;;3.53;;
59147;SDS011;44930;52.878;6.168;2023-04-15T00:17:17;6.72;;;3.10;;
59147;SDS011;44930;52.878;6.168;2023-04-15T00:19:42;5.35;;;2.70;;
59147;SDS011;44930;52.878;6.168;2023-04-15T00:22:09;6.38;;;3.03;;
59147;SDS011;44930;52.878;6.168;2023-04-15T00:24:36;4.75;;;3.00;;
59147;SDS011;44930;52.878;6.168;2023-04-15T00:27:02;7.13;;;3.38;;
59147;SDS011;44930;52.878;6.168;2023-04-15T00:29:28;5.85;;;2.90;;
59147;SDS011;44930;52.878;6.168;2023-04-15T00:31:54;8.45;;;3.22;;
59147;SDS011;44930;52.878;6.168;2023-04-15T00:34:21;10.05;;;3.40;;
59147;SDS011;44930;52.878;6.168;2023-04-15T00:36:47;6.22;;;3.10;;
59147;SDS011;44930;52.878;6.168;2023-04-15T00:39:13;6.82;;;3.60;;
59147;SDS011;44930;52.878;6.168;2023-04-15T00:41:38;10.48;;;4.03;;
59147;SDS011;44930;52.878;6.168;2023-04-15T00:44:07;10.45;;;3.17;;
59147;SDS011;44930;52.878;6.168;2023-04-15T00:46:36;7.40;;;3.30;;
59147;SDS011;44930;52.878;6.168;2023-04-15T00:49:04;7.53;;;3.25;;
59147;SDS011;44930;52.878;6.168;2023-04-15T00:51:30;10.98;;;3.17;;
59147;SDS011;44930;52.878;6.168;2023-04-15T00:53:57;6.47;;;3.20;;
59147;SDS011;44930;52.878;6.168;2023-04-15T00:56:24;5.97;;;3.17;;
59147;SDS011;44930;52.878;6.168;2023-04-15T00:58:51;7.53;;;3.45;;
59147;SDS011;44930;52.878;6.168;2023-04-15T01:01:20;6.15;;;4.15;;
59147;SDS011;44930;52.878;6.168;2023-04-15T01:03:49;7.07;;;3.65;;
59147;SDS011;44930;52.878;6.168;2023-04-15T01:06:15;7.50;;;4.00;;
59147;SDS011;44930;52.878;6.168;2023-04-15T01:08:41;12.63;;;4.70;;
59147;SDS011;44930;52.878;6.168;2023-04-15T01:11:07;9.40;;;3.92;;
59147;SDS011;44930;52.878;6.168;2023-04-15T01:13:34;11.27;;;4.00;;
59147;SDS011;44930;52.878;6.168;2023-04-15T01:16:01;6.60;;;3.30;;
59147;SDS011;44930;52.878;6.168;2023-04-15T01:18:27;7.00;;;4.32;;
59147;SDS011;44930;52.878;6.168;2023-04-15T01:20:53;7.80;;;4.22;;
59147;SDS011;44930;52.878;6.168;2023-04-15T01:23:19;9.77;;;3.95;;
59147;SDS011;44930;52.878;6.168;2023-04-15T01:25:46;6.47;;;3.97;;
59147;SDS011;44930;52.878;6.168;2023-04-15T01:28:13;9.38;;;3.97;;
59147;SDS011;44930;52.878;6.168;2023-04-15T01:30:40;13.45;;;3.65;;
59147;SDS011;44930;52.878;6.168;2023-04-15T01:33:05;9.02;;;3.83;;
59147;SDS011;44930;52.878;6.168;2023-04-15T01:35:31;6.95;;;3.70;;
59147;SDS011;44930;52.878;6.168;2023-04-15T01:37:59;11.02;;;3.92;;
59147;SDS011;44930;52.878;6.168;2023-04-15T01:40:30;6.95;;;4.05;;
59147;SDS011;44930;52.878;6.168;2023-04-15T01:42:56;8.32;;;3.85;;
59147;SDS011;44930;52.878;6.168;2023-04-15T01:45:21;8.30;;;4.00;;
59147;SDS011;44930;52.878;6.168;2023-04-15T01:47:47;8.52;;;4.35;;
59147;SDS011;44930;52.878;6.168;2023-04-15T01:50:13;9.95;;;4.05;;
59147;SDS011;44930;52.878;6.168;2023-04-15T01:52:39;9.05;;;4.03;;
59147;SDS011;44930;52.878;6.168;2023-04-15T01:55:05;7.60;;;4.30;;
59147;SDS011;44930;52.878;6.168;2023-04-15T01:57:32;10.50;;;6.07;;
59147;SDS011;44930;52.878;6.168;2023-04-15T01:59:58;11.75;;;4.85;;
59147;SDS011;44930;52.878;6.168;2023-04-15T02:02:23;9.77;;;4.35;;
59147;SDS011;44930;52.878;6.168;2023-04-15T02:04:49;11.65;;;4.75;;
59147;SDS011;44930;52.878;6.168;2023-04-15T02:07:15;10.98;;;4.45;;
59147;SDS011;44930;52.878;6.168;2023-04-15T02:09:41;7.95;;;4.55;;
59147;SDS011;44930;52.878;6.168;2023-04-15T02:12:07;7.50;;;5.03;;
59147;SDS011;44930;52.878;6.168;2023-04-15T02:14:33;9.25;;;4.65;;
59147;SDS011;44930;52.878;6.168;2023-04-15T02:16:59;9.45;;;4.88;;
59147;SDS011;44930;52.878;6.168;2023-04-15T02:19:31;9.15;;;4.50;;
59147;SDS011;44930;52.878;6.168;2023-04-15T02:21:57;9.13;;;4.68;;
59147;SDS011;44930;52.878;6.168;2023-04-15T02:24:22;9.25;;;4.63;;
59147;SDS011;44930;52.878;6.168;2023-04-15T02:26:48;10.27;;;4.85;;
59147;SDS011;44930;52.878;6.168;2023-04-15T02:29:13;10.48;;;4.80;;
59147;SDS011;44930;52.878;6.168;2023-04-15T02:31:39;9.18;;;4.97;;
59147;SDS011;44930;52.878;6.168;2023-04-15T02:34:06;11.98;;;5.07;;
59147;SDS011;44930;52.878;6.168;2023-04-15T02:36:32;8.30;;;5.15;;
59147;SDS011;44930;52.878;6.168;2023-04-15T02:38:58;7.93;;;4.63;;
59147;SDS011;44930;52.878;6.168;2023-04-15T02:41:24;9.95;;;4.75;;
59147;SDS011;44930;52.878;6.168;2023-04-15T02:43:52;9.60;;;4.72;;
59147;SDS011;44930;52.878;6.168;2023-04-15T02:46:18;8.93;;;4.70;;
59147;SDS011;44930;52.878;6.168;2023-04-15T02:48:43;7.43;;;5.07;;
59147;SDS011;44930;52.878;6.168;2023-04-15T02:51:18;8.20;;;4.88;;
59147;SDS011;44930;52.878;6.168;2023-04-15T02:53:48;8.10;;;4.35;;
59147;SDS011;44930;52.878;6.168;2023-04-15T02:56:14;9.52;;;5.22;;
59147;SDS011;44930;52.878;6.168;2023-04-15T02:58:41;12.35;;;5.05;;
59147;SDS011;44930;52.878;6.168;2023-04-15T03:01:08;11.63;;;5.18;;
59147;SDS011;44930;52.878;6.168;2023-04-15T03:03:34;8.27;;;5.22;;
59147;SDS011;44930;52.878;6.168;2023-04-15T03:05:59;8.13;;;4.78;;
59147;SDS011;44930;52.878;6.168;2023-04-15T03:08:25;11.52;;;5.07;;
59147;SDS011;44930;52.878;6.168;2023-04-15T03:10:51;10.10;;;6.10;;
59147;SDS011;44930;52.878;6.168;2023-04-15T03:13:17;13.98;;;5.70;;
59147;SDS011;44930;52.878;6.168;2023-04-15T03:15:46;7.90;;;5.50;;
59147;SDS011;44930;52.878;6.168;2023-04-15T03:18:12;8.68;;;5.65;;
59147;SDS011;44930;52.878;6.168;2023-04-15T03:20:38;10.13;;;5.63;;
59147;SDS011;44930;52.878;6.168;2023-04-15T03:23:03;10.90;;;5.38;;
59147;SDS011;44930;52.878;6.168;2023-04-15T03:25:29;11.15;;;5.63;;
59147;SDS011;44930;52.878;6.168;2023-04-15T03:27:54;8.52;;;5.95;;
59147;SDS011;44930;52.878;6.168;2023-04-15T03:30:20;12.98;;;6.00;;
59147;SDS011;44930;52.878;6.168;2023-04-15T03:32:46;8.10;;;5.95;;
59147;SDS011;44930;52.878;6.168;2023-04-15T03:35:12;9.30;;;6.00;;
59147;SDS011;44930;52.878;6.168;2023-04-15T03:37:37;10.43;;;6.55;;
59147;SDS011;44930;52.878;6.168;2023-04-15T03:40:03;13.80;;;6.65;;
59147;SDS011;44930;52.878;6.168;2023-04-15T03:42:29;9.85;;;6.13;;
59147;SDS011;44930;52.878;6.168;2023-04-15T03:44:55;9.82;;;6.35;;
59147;SDS011;44930;52.878;6.168;2023-04-15T03:47:21;9.18;;;5.40;;
59147;SDS011;44930;52.878;6.168;2023-04-15T03:49:46;12.88;;;5.97;;
59147;SDS011;44930;52.878;6.168;2023-04-15T03:52:12;12.10;;;6.63;;
59147;SDS011;44930;52.878;6.168;2023-04-15T03:54:38;12.50;;;6.60;;
59147;SDS011;44930;52.878;6.168;2023-04-15T03:57:04;9.38;;;5.68;;
59147;SDS011;44930;52.878;6.168;2023-04-15T03:59:29;10.77;;;6.97;;
59147;SDS011;44930;52.878;6.168;2023-04-15T04:01:55;11.13;;;6.90;;
59147;SDS011;44930;52.878;6.168;2023-04-15T04:04:20;12.52;;;6.60;;
59147;SDS011;44930;52.878;6.168;2023-04-15T04:06:46;10.73;;;6.10;;
59147;SDS011;44930;52.878;6.168;2023-04-15T04:09:12;11.68;;;6.43;;
59147;SDS011;44930;52.878;6.168;2023-04-15T04:11:37;13.27;;;7.47;;
59147;SDS011;44930;52.878;6.168;2023-04-15T04:14:03;11.82;;;6.63;;
59147;SDS011;44930;52.878;6.168;2023-04-15T04:16:29;11.35;;;7.13;;
59147;SDS011;44930;52.878;6.168;2023-04-15T04:18:54;12.07;;;7.18;;
59147;SDS011;44930;52.878;6.168;2023-04-15T04:21:20;12.88;;;7.82;;
59147;SDS011;44930;52.878;6.168;2023-04-15T04:23:45;11.23;;;6.97;;
59147;SDS011;44930;52.878;6.168;2023-04-15T04:26:11;11.65;;;6.95;;
59147;SDS011;44930;52.878;6.168;2023-04-15T04:28:37;11.40;;;7.20;;
59147;SDS011;44930;52.878;6.168;2023-04-15T04:31:04;13.23;;;7.00;;
59147;SDS011;44930;52.878;6.168;2023-04-15T04:33:31;11.00;;;6.93;;
59147;SDS011;44930;52.878;6.168;2023-04-15T04:35:57;11.73;;;7.00;;
59147;SDS011;44930;52.878;6.168;2023-04-15T04:38:22;10.48;;;7.05;;
59147;SDS011;44930;52.878;6.168;2023-04-15T04:40:48;11.23;;;6.47;;
59147;SDS011;44930;52.878;6.168;2023-04-15T04:43:14;11.30;;;6.80;;
59147;SDS011;44930;52.878;6.168;2023-04-15T04:45:40;11.82;;;7.70;;
59147;SDS011;44930;52.878;6.168;2023-04-15T04:48:06;12.25;;;7.90;;
59147;SDS011;44930;52.878;6.168;2023-04-15T04:50:33;12.70;;;7.82;;
59147;SDS011;44930;52.878;6.168;2023-04-15T04:52:59;10.48;;;7.28;;
59147;SDS011;44930;52.878;6.168;2023-04-15T04:55:25;13.43;;;8.20;;
59147;SDS011;44930;52.878;6.168;2023-04-15T04:57:51;14.45;;;8.23;;
59147;SDS011;44930;52.878;6.168;2023-04-15T05:00:17;12.68;;;8.15;;
59147;SDS011;44930;52.878;6.168;2023-04-15T05:02:43;13.10;;;7.75;;
59147;SDS011;44930;52.878;6.168;2023-04-15T05:05:09;9.77;;;7.25;;
59147;SDS011;44930;52.878;6.168;2023-04-15T05:07:35;13.95;;;8.77;;
59147;SDS011;44930;52.878;6.168;2023-04-15T05:10:01;12.05;;;8.07;;
59147;SDS011;44930;52.878;6.168;2023-04-15T05:12:27;13.50;;;7.63;;
59147;SDS011;44930;52.878;6.168;2023-04-15T05:14:53;17.67;;;8.60;;
59147;SDS011;44930;52.878;6.168;2023-04-15T05:17:18;12.48;;;7.65;;
59147;SDS011;44930;52.878;6.168;2023-04-15T05:19:44;12.25;;;7.88;;
59147;SDS011;44930;52.878;6.168;2023-04-15T05:22:10;12.68;;;8.18;;
59147;SDS011;44930;52.878;6.168;2023-04-15T05:24:36;14.43;;;8.00;;
59147;SDS011;44930;52.878;6.168;2023-04-15T05:27:01;13.25;;;8.27;;
59147;SDS011;44930;52.878;6.168;2023-04-15T05:29:27;13.82;;;9.48;;
59147;SDS011;44930;52.878;6.168;2023-04-15T05:31:53;15.70;;;9.68;;
59147;SDS011;44930;52.878;6.168;2023-04-15T05:34:18;16.05;;;9.63;;
59147;SDS011;44930;52.878;6.168;2023-04-15T05:36:44;12.82;;;8.70;;
59147;SDS011;44930;52.878;6.168;2023-04-15T05:39:09;16.90;;;10.40;;
59147;SDS011;44930;52.878;6.168;2023-04-15T05:41:35;15.20;;;9.20;;
59147;SDS011;44930;52.878;6.168;2023-04-15T05:44:02;15.27;;;9.57;;
59147;SDS011;44930;52.878;6.168;2023-04-15T05:46:27;16.95;;;10.07;;
59147;SDS011;44930;52.878;6.168;2023-04-15T05:48:53;13.98;;;9.05;;
59147;SDS011;44930;52.878;6.168;2023-04-15T05:51:18;15.88;;;10.23;;
59147;SDS011;44930;52.878;6.168;2023-04-15T05:53:44;16.20;;;10.60;;
59147;SDS011;44930;52.878;6.168;2023-04-15T05:56:10;16.48;;;10.15;;
59147;SDS011;44930;52.878;6.168;2023-04-15T05:58:36;18.23;;;11.23;;
59147;SDS011;44930;52.878;6.168;2023-04-15T06:01:02;16.67;;;9.68;;
59147;SDS011;44930;52.878;6.168;2023-04-15T06:03:28;17.67;;;10.35;;
59147;SDS011;44930;52.878;6.168;2023-04-15T06:05:54;16.35;;;9.35;;
59147;SDS011;44930;52.878;6.168;2023-04-15T06:08:20;16.60;;;10.60;;
59147;SDS011;44930;52.878;6.168;2023-04-15T06:10:46;19.40;;;10.68;;
59147;SDS011;44930;52.878;6.168;2023-04-15T06:13:11;17.92;;;12.20;;
59147;SDS011;44930;52.878;6.168;2023-04-15T06:15:37;18.15;;;11.18;;
59147;SDS011;44930;52.878;6.168;2023-04-15T06:18:02;18.38;;;10.93;;
59147;SDS011;44930;52.878;6.168;2023-04-15T06:20:28;14.60;;;10.60;;
59147;SDS011;44930;52.878;6.168;2023-04-15T06:22:54;15.98;;;10.48;;
59147;SDS011;44930;52.878;6.168;2023-04-15T06:25:20;18.55;;;10.32;;
59147;SDS011;44930;52.878;6.168;2023-04-15T06:27:46;17.25;;;10.45;;
59147;SDS011;44930;52.878;6.168;2023-04-15T06:30:12;18.83;;;10.63;;
59147;SDS011;44930;52.878;6.168;2023-04-15T06:32:37;18.67;;;10.40;;
59147;SDS011;44930;52.878;6.168;2023-04-15T06:35:03;13.80;;;10.25;;
59147;SDS011;44930;52.878;6.168;2023-04-15T06:37:29;15.02;;;9.57;;
59147;SDS011;44930;52.878;6.168;2023-04-15T06:39:55;16.27;;;9.40;;
59147;SDS011;44930;52.878;6.168;2023-04-15T06:42:20;15.07;;;9.15;;
59147;SDS011;44930;52.878;6.168;2023-04-15T06:44:47;13.40;;;9.80;;
59147;SDS011;44930;52.878;6.168;2023-04-15T06:47:12;15.88;;;10.27;;
59147;SDS011;44930;52.878;6.168;2023-04-15T06:49:39;15.13;;;10.32;;
59147;SDS011;44930;52.878;6.168;2023-04-15T06:52:05;14.95;;;9.23;;
59147;SDS011;44930;52.878;6.168;2023-04-15T06:54:30;14.52;;;9.13;;
59147;SDS011;44930;52.878;6.168;2023-04-15T06:56:56;15.70;;;10.30;;
59147;SDS011;44930;52.878;6.168;2023-04-15T06:59:22;14.07;;;9.57;;
59147;SDS011;44930;52.878;6.168;2023-04-15T07:01:48;14.40;;;10.60;;
59147;SDS011;44930;52.878;6.168;2023-04-15T07:04:13;14.65;;;10.10;;
59147;SDS011;44930;52.878;6.168;2023-04-15T07:06:39;14.77;;;9.52;;
59147;SDS011;44930;52.878;6.168;2023-04-15T07:09:05;14.48;;;9.73;;
59147;SDS011;44930;52.878;6.168;2023-04-15T07:11:31;13.75;;;9.13;;
59147;SDS011;44930;52.878;6.168;2023-04-15T07:13:57;16.67;;;10.02;;
59147;SDS011;44930;52.878;6.168;2023-04-15T07:16:23;14.73;;;10.30;;
59147;SDS011;44930;52.878;6.168;2023-04-15T07:18:48;17.45;;;10.38;;
59147;SDS011;44930;52.878;6.168;2023-04-15T07:21:14;19.63;;;10.05;;
59147;SDS011;44930;52.878;6.168;2023-04-15T07:23:40;15.35;;;9.90;;
59147;SDS011;44930;52.878;6.168;2023-04-15T07:26:06;18.10;;;10.82;;
59147;SDS011;44930;52.878;6.168;2023-04-15T07:28:32;17.15;;;10.77;;
59147;SDS011;44930;52.878;6.168;2023-04-15T07:30:58;15.68;;;9.80;;
59147;SDS011;44930;52.878;6.168;2023-04-15T07:33:23;14.85;;;10.23;;
59147;SDS011;44930;52.878;6.168;2023-04-15T07:35:49;15.80;;;10.43;;
59147;SDS011;44930;52.878;6.168;2023-04-15T07:38:14;17.80;;;9.85;;
59147;SDS011;44930;52.878;6.168;2023-04-15T07:40:40;13.48;;;8.93;;
59147;SDS011;44930;52.878;6.168;2023-04-15T07:43:06;14.90;;;9.00;;
59147;SDS011;44930;52.878;6.168;2023-04-15T07:45:32;13.32;;;9.07;;
59147;SDS011;44930;52.878;6.168;2023-04-15T07:47:59;11.63;;;8.10;;
59147;SDS011;44930;52.878;6.168;2023-04-15T07:50:25;12.90;;;8.93;;
59147;SDS011;44930;52.878;6.168;2023-04-15T07:52:51;12.98;;;8.43;;
59147;SDS011;44930;52.878;6.168;2023-04-15T07:55:17;12.75;;;8.35;;
59147;SDS011;44930;52.878;6.168;2023-04-15T07:57:45;14.40;;;9.05;;
59147;SDS011;44930;52.878;6.168;2023-04-15T08:00:11;14.40;;;8.38;;
59147;SDS011;44930;52.878;6.168;2023-04-15T08:02:37;14.40;;;8.52;;
59147;SDS011;44930;52.878;6.168;2023-04-15T08:05:03;14.05;;;7.82;;
59147;SDS011;44930;52.878;6.168;2023-04-15T08:07:30;11.55;;;7.43;;
59147;SDS011;44930;52.878;6.168;2023-04-15T08:09:55;10.57;;;7.13;;
59147;SDS011;44930;52.878;6.168;2023-04-15T08:12:21;12.48;;;7.28;;
59147;SDS011;44930;52.878;6.168;2023-04-15T08:14:49;11.73;;;6.60;;
59147;SDS011;44930;52.878;6.168;2023-04-15T08:17:15;9.02;;;6.50;;
59147;SDS011;44930;52.878;6.168;2023-04-15T08:19:40;9.43;;;6.57;;
59147;SDS011;44930;52.878;6.168;2023-04-15T08:22:06;9.05;;;5.40;;
59147;SDS011;44930;52.878;6.168;2023-04-15T08:24:32;12.13;;;6.15;;
59147;SDS011;44930;52.878;6.168;2023-04-15T08:26:58;9.63;;;4.95;;
59147;SDS011;44930;52.878;6.168;2023-04-15T08:29:24;5.97;;;4.45;;
59147;SDS011;44930;52.878;6.168;2023-04-15T08:31:49;7.32;;;3.67;;
59147;SDS011;44930;52.878;6.168;2023-04-15T08:34:15;5.60;;;3.53;;
59147;SDS011;44930;52.878;6.168;2023-04-15T08:36:42;6.15;;;3.47;;
59147;SDS011;44930;52.878;6.168;2023-04-15T08:39:07;4.82;;;3.20;;
59147;SDS011;44930;52.878;6.168;2023-04-15T08:41:33;4.18;;;2.78;;
59147;SDS011;44930;52.878;6.168;2023-04-15T08:44:15;5.95;;;4.15;;
59147;SDS011;44930;52.878;6.168;2023-04-15T08:46:42;9.18;;;4.40;;
59147;SDS011;44930;52.878;6.168;2023-04-15T08:49:11;7.78;;;4.13;;
59147;SDS011;44930;52.878;6.168;2023-04-15T08:51:38;7.10;;;4.25;;
59147;SDS011;44930;52.878;6.168;2023-04-15T08:54:05;6.65;;;4.10;;
59147;SDS011;44930;52.878;6.168;2023-04-15T08:56:32;7.53;;;4.28;;
59147;SDS011;44930;52.878;6.168;2023-04-15T08:58:59;7.00;;;4.28;;
59147;SDS011;44930;52.878;6.168;2023-04-15T09:01:25;8.25;;;4.43;;
59147;SDS011;44930;52.878;6.168;2023-04-15T09:03:51;7.10;;;3.28;;
59147;SDS011;44930;52.878;6.168;2023-04-15T09:06:20;6.55;;;3.40;;
59147;SDS011;44930;52.878;6.168;2023-04-15T09:08:47;6.15;;;3.40;;
59147;SDS011;44930;52.878;6.168;2023-04-15T09:11:13;4.93;;;3.33;;
59147;SDS011;44930;52.878;6.168;2023-04-15T09:13:38;5.07;;;3.35;;
59147;SDS011;44930;52.878;6.168;2023-04-15T09:16:04;6.60;;;3.22;;
59147;SDS011;44930;52.878;6.168;2023-04-15T09:18:31;6.93;;;3.00;;
59147;SDS011;44930;52.878;6.168;2023-04-15T09:23:31;6.32;;;3.38;;
59147;SDS011;44930;52.878;6.168;2023-04-15T09:25:56;5.88;;;3.13;;
59147;SDS011;44930;52.878;6.168;2023-04-15T09:28:22;5.80;;;3.05;;
59147;SDS011;44930;52.878;6.168;2023-04-15T09:30:56;4.18;;;2.58;;
59147;SDS011;44930;52.878;6.168;2023-04-15T09:33:23;7.43;;;3.70;;
59147;SDS011;44930;52.878;6.168;2023-04-15T09:36:03;5.82;;;3.47;;
59147;SDS011;44930;52.878;6.168;2023-04-15T09:38:30;8.40;;;3.20;;
59147;SDS011;44930;52.878;6.168;2023-04-15T09:40:56;5.43;;;3.08;;
59147;SDS011;44930;52.878;6.168;2023-04-15T09:43:25;5.93;;;2.95;;
59147;SDS011;44930;52.878;6.168;2023-04-15T09:46:03;6.60;;;2.88;;
59147;SDS011;44930;52.878;6.168;2023-04-15T09:48:28;5.93;;;2.83;;
59147;SDS011;44930;52.878;6.168;2023-04-15T09:50:58;6.22;;;2.60;;
59147;SDS011;44930;52.878;6.168;2023-04-15T09:53:25;6.60;;;3.28;;
59147;SDS011;44930;52.878;6.168;2023-04-15T09:58:20;4.22;;;2.47;;
59147;SDS011;44930;52.878;6.168;2023-04-15T10:00:48;6.85;;;2.83;;
59147;SDS011;44930;52.878;6.168;2023-04-15T10:03:19;3.90;;;2.33;;
59147;SDS011;44930;52.878;6.168;2023-04-15T10:05:47;4.20;;;2.35;;
59147;SDS011;44930;52.878;6.168;2023-04-15T10:08:18;2.60;;;1.55;;
59147;SDS011;44930;52.878;6.168;2023-04-15T10:10:48;3.10;;;1.88;;
59147;SDS011;44930;52.878;6.168;2023-04-15T10:13:17;4.45;;;2.20;;
59147;SDS011;44930;52.878;6.168;2023-04-15T10:15:44;3.75;;;2.20;;
59147;SDS011;44930;52.878;6.168;2023-04-15T10:18:15;8.07;;;2.38;;
59147;SDS011;44930;52.878;6.168;2023-04-15T10:20:43;6.63;;;2.20;;
59147;SDS011;44930;52.878;6.168;2023-04-15T10:23:09;4.68;;;2.55;;
59147;SDS011;44930;52.878;6.168;2023-04-15T10:25:36;2.15;;;1.30;;
59147;SDS011;44930;52.878;6.168;2023-04-15T10:28:02;4.63;;;1.73;;
59147;SDS011;44930;52.878;6.168;2023-04-15T10:30:30;6.13;;;1.63;;
59147;SDS011;44930;52.878;6.168;2023-04-15T10:32:57;5.50;;;1.42;;
59147;SDS011;44930;52.878;6.168;2023-04-15T10:35:23;1.77;;;1.13;;
59147;SDS011;44930;52.878;6.168;2023-04-15T10:37:50;3.13;;;1.30;;
59147;SDS011;44930;52.878;6.168;2023-04-15T10:40:37;2.75;;;1.30;;
59147;SDS011;44930;52.878;6.168;2023-04-15T10:43:02;2.55;;;1.05;;
59147;SDS011;44930;52.878;6.168;2023-04-15T10:45:37;2.70;;;0.95;;
59147;SDS011;44930;52.878;6.168;2023-04-15T10:48:03;5.90;;;1.38;;
59147;SDS011;44930;52.878;6.168;2023-04-15T10:50:31;3.90;;;1.25;;
59147;SDS011;44930;52.878;6.168;2023-04-15T10:52:57;4.15;;;2.40;;
59147;SDS011;44930;52.878;6.168;2023-04-15T10:55:23;2.92;;;1.13;;
59147;SDS011;44930;52.878;6.168;2023-04-15T10:57:54;5.05;;;1.08;;
59147;SDS011;44930;52.878;6.168;2023-04-15T11:00:24;1.88;;;1.10;;
59147;SDS011;44930;52.878;6.168;2023-04-15T11:02:52;2.95;;;1.20;;
59147;SDS011;44930;52.878;6.168;2023-04-15T11:08:05;4.20;;;1.15;;
59147;SDS011;44930;52.878;6.168;2023-04-15T11:13:16;3.58;;;2.15;;
59147;SDS011;44930;52.878;6.168;2023-04-15T11:15:46;2.78;;;1.35;;
59147;SDS011;44930;52.878;6.168;2023-04-15T11:21:00;2.80;;;1.02;;
59147;SDS011;44930;52.878;6.168;2023-04-15T11:25:56;3.83;;;1.20;;
59147;SDS011;44930;52.878;6.168;2023-04-15T11:28:27;2.33;;;1.10;;
59147;SDS011;44930;52.878;6.168;2023-04-15T11:30:54;2.55;;;1.35;;
59147;SDS011;44930;52.878;6.168;2023-04-15T11:33:21;2.70;;;1.50;;
59147;SDS011;44930;52.878;6.168;2023-04-15T11:35:48;2.03;;;1.30;;
59147;SDS011;44930;52.878;6.168;2023-04-15T11:38:14;1.60;;;1.20;;
59147;SDS011;44930;52.878;6.168;2023-04-15T11:40:41;4.53;;;1.55;;
59147;SDS011;44930;52.878;6.168;2023-04-15T11:43:11;4.53;;;1.58;;
59147;SDS011;44930;52.878;6.168;2023-04-15T11:45:54;5.50;;;1.70;;
59147;SDS011;44930;52.878;6.168;2023-04-15T11:48:22;4.85;;;1.20;;
59147;SDS011;44930;52.878;6.168;2023-04-15T11:50:51;3.17;;;1.13;;
59147;SDS011;44930;52.878;6.168;2023-04-15T11:53:18;3.30;;;1.58;;
59147;SDS011;44930;52.878;6.168;2023-04-15T11:55:48;5.53;;;1.50;;
59147;SDS011;44930;52.878;6.168;2023-04-15T11:58:23;3.35;;;1.45;;
59147;SDS011;44930;52.878;6.168;2023-04-15T12:00:53;3.22;;;1.17;;
59147;SDS011;44930;52.878;6.168;2023-04-15T12:03:56;4.07;;;1.60;;
59147;SDS011;44930;52.878;6.168;2023-04-15T12:06:21;7.20;;;1.60;;
59147;SDS011;44930;52.878;6.168;2023-04-15T12:11:30;6.55;;;2.33;;
59147;SDS011;44930;52.878;6.168;2023-04-15T12:14:19;5.45;;;1.75;;
59147;SDS011;44930;52.878;6.168;2023-04-15T12:16:50;6.53;;;1.85;;
59147;SDS011;44930;52.878;6.168;2023-04-15T12:19:22;7.22;;;1.30;;
59147;SDS011;44930;52.878;6.168;2023-04-15T12:22:02;5.15;;;1.63;;
59147;SDS011;44930;52.878;6.168;2023-04-15T12:24:38;6.22;;;1.67;;
59147;SDS011;44930;52.878;6.168;2023-04-15T12:27:08;4.72;;;1.75;;
59147;SDS011;44930;52.878;6.168;2023-04-15T12:29:36;5.20;;;1.83;;
59147;SDS011;44930;52.878;6.168;2023-04-15T12:34:33;6.20;;;1.70;;
59147;SDS011;44930;52.878;6.168;2023-04-15T12:37:01;7.53;;;1.63;;
59147;SDS011;44930;52.878;6.168;2023-04-15T12:39:29;5.43;;;1.88;;
59147;SDS011;44930;52.878;6.168;2023-04-15T12:41:59;7.32;;;1.70;;
59147;SDS011;44930;52.878;6.168;2023-04-15T12:44:25;3.35;;;1.38;;
59147;SDS011;44930;52.878;6.168;2023-04-15T12:46:52;6.00;;;1.48;;
59147;SDS011;44930;52.878;6.168;2023-04-15T12:49:18;4.53;;;1.30;;
59147;SDS011;44930;52.878;6.168;2023-04-15T12:51:46;5.50;;;1.83;;
59147;SDS011;44930;52.878;6.168;2023-04-15T12:54:16;3.05;;;1.45;;
59147;SDS011;44930;52.878;6.168;2023-04-15T12:56:43;5.95;;;1.52;;
59147;SDS011;44930;52.878;6.168;2023-04-15T12:59:12;4.07;;;1.48;;
59147;SDS011;44930;52.878;6.168;2023-04-15T13:01:38;7.65;;;2.40;;
59147;SDS011;44930;52.878;6.168;2023-04-15T13:04:05;7.40;;;1.83;;
59147;SDS011;44930;52.878;6.168;2023-04-15T13:06:31;2.90;;;1.30;;
59147;SDS011;44930;52.878;6.168;2023-04-15T13:09:00;7.80;;;1.73;;
59147;SDS011;44930;52.878;6.168;2023-04-15T13:11:27;8.23;;;1.73;;
59147;SDS011;44930;52.878;6.168;2023-04-15T13:13:55;10.63;;;1.85;;
59147;SDS011;44930;52.878;6.168;2023-04-15T13:16:21;8.45;;;1.52;;
59147;SDS011;44930;52.878;6.168;2023-04-15T13:18:48;9.55;;;1.92;;
59147;SDS011;44930;52.878;6.168;2023-04-15T13:21:14;8.35;;;1.67;;
59147;SDS011;44930;52.878;6.168;2023-04-15T13:23:40;4.20;;;1.20;;
59147;SDS011;44930;52.878;6.168;2023-04-15T13:26:06;5.18;;;1.92;;
59147;SDS011;44930;52.878;6.168;2023-04-15T13:28:32;6.30;;;1.40;;
59147;SDS011;44930;52.878;6.168;2023-04-15T13:30:58;5.07;;;1.38;;
59147;SDS011;44930;52.878;6.168;2023-04-15T13:33:24;6.25;;;1.55;;
59147;SDS011;44930;52.878;6.168;2023-04-15T13:35:50;7.88;;;2.17;;
59147;SDS011;44930;52.878;6.168;2023-04-15T13:38:15;5.13;;;1.35;;
59147;SDS011;44930;52.878;6.168;2023-04-15T13:40:41;5.38;;;1.17;;
59147;SDS011;44930;52.878;6.168;2023-04-15T13:43:06;7.97;;;1.73;;
59147;SDS011;44930;52.878;6.168;2023-04-15T13:45:32;3.33;;;1.35;;
59147;SDS011;44930;52.878;6.168;2023-04-15T13:47:57;8.55;;;1.10;;
59147;SDS011;44930;52.878;6.168;2023-04-15T13:50:24;6.35;;;1.13;;
59147;SDS011;44930;52.878;6.168;2023-04-15T13:52:50;3.90;;;1.02;;
59147;SDS011;44930;52.878;6.168;2023-04-15T13:55:16;6.30;;;1.67;;
59147;SDS011;44930;52.878;6.168;2023-04-15T13:57:41;2.70;;;0.88;;
59147;SDS011;44930;52.878;6.168;2023-04-15T14:00:07;13.07;;;1.23;;
59147;SDS011;44930;52.878;6.168;2023-04-15T14:02:33;4.70;;;1.30;;
59147;SDS011;44930;52.878;6.168;2023-04-15T14:04:58;8.57;;;1.30;;
59147;SDS011;44930;52.878;6.168;2023-04-15T14:07:24;6.50;;;1.05;;
59147;SDS011;44930;52.878;6.168;2023-04-15T14:09:50;4.72;;;1.02;;
59147;SDS011;44930;52.878;6.168;2023-04-15T14:12:16;7.32;;;1.38;;
59147;SDS011;44930;52.878;6.168;2023-04-15T14:14:41;5.07;;;0.85;;
59147;SDS011;44930;52.878;6.168;2023-04-15T14:17:08;5.00;;;1.50;;
59147;SDS011;44930;52.878;6.168;2023-04-15T14:19:34;8.27;;;1.45;;
59147;SDS011;44930;52.878;6.168;2023-04-15T14:21:59;5.30;;;1.42;;
59147;SDS011;44930;52.878;6.168;2023-04-15T14:24:25;4.15;;;1.10;;
59147;SDS011;44930;52.878;6.168;2023-04-15T14:26:51;4.72;;;1.52;;
59147;SDS011;44930;52.878;6.168;2023-04-15T14:29:17;10.30;;;1.52;;
59147;SDS011;44930;52.878;6.168;2023-04-15T14:31:42;9.00;;;1.52;;
59147;SDS011;44930;52.878;6.168;2023-04-15T14:34:09;5.95;;;1.73;;
59147;SDS011;44930;52.878;6.168;2023-04-15T14:36:35;6.47;;;1.50;;
59147;SDS011;44930;52.878;6.168;2023-04-15T14:39:00;10.95;;;2.03;;
59147;SDS011;44930;52.878;6.168;2023-04-15T14:41:28;5.85;;;1.83;;
59147;SDS011;44930;52.878;6.168;2023-04-15T14:43:53;6.13;;;1.60;;
59147;SDS011;44930;52.878;6.168;2023-04-15T14:46:19;12.98;;;2.60;;
59147;SDS011;44930;52.878;6.168;2023-04-15T14:48:45;9.77;;;1.88;;
59147;SDS011;44930;52.878;6.168;2023-04-15T14:51:10;6.70;;;1.42;;
59147;SDS011;44930;52.878;6.168;2023-04-15T14:53:36;8.93;;;1.88;;
59147;SDS011;44930;52.878;6.168;2023-04-15T14:56:01;8.85;;;1.67;;
59147;SDS011;44930;52.878;6.168;2023-04-15T14:58:27;9.07;;;2.72;;